Rechercher aéroport 
image banner adimage banner adimage banner ad
image banner ad

4CL5 - Mercy San Juan Hospital

Situé à Carmichael, United States

ICAO - 4CL5, IATA -

Données fournies par Airmate  

Information générale

Coordonnées: N38°40'9" W121°18'52"
Élévation : 169 feet MSL.
Variation magnétique : 16° East
Voir autres Aéroports à California

Données opérationnelles

Special qualification required
Heure actuelle UTC:
Heure actuelle locale:
Météo à : KMCC - Mc Clellan Airfield ( 7 km )
METAR: KMCC 300035Z AUTO 21007G12KT 10SM CLR 40/13 A2978 RMK AO2
TAF: KMCC 292350Z 3000/3024 23007KT P6SM FEW200 FM300600 16007KT P6SM FEW150 FM302200 23006KT P6SM FEW250
Voir NOTAMs / SUP AIP / TFR affectant cet aéroport [VIEW]
Fréquences de communication: [VIEW]

Pistes:

Coordonnées de l'aéroport

Adresse: Carmichael United States

Vue satellite de 4CL5